createdAt,value
2022-09-15T00:00:26.521Z,16.57
2022-09-15T00:05:28.421Z,16.53
2022-09-15T00:10:29.967Z,16.67
2022-09-15T00:15:31.488Z,16.77
2022-09-15T00:20:33.295Z,16.45
2022-09-15T00:25:34.912Z,16.54
2022-09-15T00:30:41.147Z,16.56
2022-09-15T00:35:44.956Z,16.62
2022-09-15T00:40:51.690Z,16.59
2022-09-15T00:45:53.265Z,16.62
2022-09-15T00:50:57.043Z,16.59
2022-09-15T00:55:59.398Z,16.57
2022-09-15T01:01:02.084Z,16.47
2022-09-15T01:06:17.101Z,16.56
2022-09-15T01:11:18.789Z,16.48
2022-09-15T01:16:29.317Z,16.49
2022-09-15T01:22:01.792Z,16.44
2022-09-15T01:27:30.944Z,16.54
2022-09-15T01:33:05.997Z,16.50
2022-09-15T01:38:30.668Z,16.45
2022-09-15T01:43:33.972Z,16.36
2022-09-15T01:48:36.251Z,16.38
2022-09-15T01:53:37.840Z,16.43
2022-09-15T01:58:40.319Z,16.39
2022-09-15T02:04:00.399Z,16.42
2022-09-15T02:09:27.657Z,16.30
2022-09-15T02:14:55.990Z,16.39
2022-09-15T02:20:05.860Z,16.35
2022-09-15T02:25:11.861Z,16.24
2022-09-15T02:30:16.301Z,16.28
2022-09-15T02:35:18.160Z,16.28
2022-09-15T02:40:19.796Z,16.28
2022-09-15T02:45:22.058Z,16.28
2022-09-15T02:50:26.624Z,16.13
2022-09-15T02:55:28.997Z,16.24
2022-09-15T03:00:31.206Z,16.06
2022-09-15T03:05:32.889Z,16.11
2022-09-15T03:10:34.662Z,16.22
2022-09-15T03:15:36.951Z,16.30
2022-09-15T03:20:38.494Z,16.20
2022-09-15T03:25:40.004Z,16.13
2022-09-15T03:30:42.397Z,16.00
2022-09-15T03:35:46.476Z,16.13
2022-09-15T03:41:07.542Z,16.19
2022-09-15T03:46:11.494Z,16.18
2022-09-15T03:51:13.157Z,16.24
2022-09-15T03:56:31.275Z,16.19
2022-09-15T04:01:33.774Z,16.12
2022-09-15T04:06:35.717Z,16.08
2022-09-15T04:11:38.207Z,16.10
2022-09-15T04:16:43.384Z,16.18
2022-09-15T04:21:47.489Z,16.10
2022-09-15T04:27:00.376Z,16.22
2022-09-15T04:32:05.569Z,16.22
2022-09-15T04:37:07.567Z,16.16
2022-09-15T04:42:09.160Z,15.85
2022-09-15T04:47:10.909Z,16.12
2022-09-15T04:52:12.513Z,15.98
2022-09-15T04:57:14.051Z,16.09
2022-09-15T05:02:15.694Z,16.05
2022-09-15T05:07:18.392Z,16.21
2022-09-15T05:12:19.924Z,16.00
2022-09-15T05:17:26.150Z,16.13
2022-09-15T05:22:31.849Z,16.05
2022-09-15T05:27:33.808Z,16.17
2022-09-15T05:32:35.431Z,16.26
2022-09-15T05:37:36.995Z,16.34
2022-09-15T05:42:38.606Z,16.40
2022-09-15T05:47:40.144Z,16.38
2022-09-15T05:52:41.764Z,16.25
2022-09-15T05:57:43.458Z,16.20
2022-09-15T06:02:45.034Z,16.22
2022-09-15T06:07:46.623Z,16.34
2022-09-15T06:12:49.062Z,16.48
2022-09-15T06:17:50.892Z,16.61
2022-09-15T06:22:56.523Z,16.61
2022-09-15T06:27:58.027Z,16.69
2022-09-15T06:32:59.589Z,16.72
2022-09-15T06:38:01.090Z,16.72
2022-09-15T06:43:02.660Z,16.95
2022-09-15T06:48:23.495Z,17.17
2022-09-15T06:53:26.128Z,17.13
2022-09-15T06:58:27.676Z,16.88
2022-09-15T07:03:29.473Z,16.87
2022-09-15T07:08:31.220Z,17.01
2022-09-15T07:13:32.871Z,17.16
2022-09-15T07:18:38.583Z,17.15
2022-09-15T07:23:43.238Z,17.28
2022-09-15T07:28:47.408Z,17.08
2022-09-15T07:33:49.314Z,17.30
2022-09-15T07:38:51.253Z,17.40
2022-09-15T07:43:55.279Z,17.40
2022-09-15T07:48:57.031Z,17.34
2022-09-15T07:53:58.707Z,17.57
2022-09-15T07:59:00.850Z,17.58
2022-09-15T08:04:02.863Z,17.75
2022-09-15T08:09:04.623Z,17.54
2022-09-15T08:14:06.451Z,17.70
2022-09-15T08:19:07.983Z,17.41
2022-09-15T08:24:09.522Z,17.57
2022-09-15T08:29:11.414Z,17.48
2022-09-15T08:34:15.082Z,17.29
2022-09-15T08:39:16.723Z,17.21
2022-09-15T08:45:08.142Z,17.19
2022-09-15T08:50:28.410Z,17.29
2022-09-15T08:55:41.657Z,17.29
2022-09-15T09:00:44.660Z,17.54
2022-09-15T09:06:05.697Z,17.67
2022-09-15T09:11:16.901Z,17.86
2022-09-15T09:17:00.371Z,17.85
2022-09-15T09:22:14.646Z,18.09
2022-09-15T09:27:19.195Z,18.03
2022-09-15T09:32:25.080Z,18.08
2022-09-15T09:37:27.103Z,17.88
2022-09-15T09:42:30.922Z,18.03
2022-09-15T09:47:34.912Z,18.05
2022-09-15T09:52:38.130Z,18.04
2022-09-15T09:57:40.815Z,17.98
2022-09-15T10:02:48.413Z,18.08
2022-09-15T10:07:50.025Z,18.17
2022-09-15T10:12:55.869Z,17.95
2022-09-15T10:17:57.840Z,17.79
2022-09-15T10:23:26.766Z,17.78
2022-09-15T10:28:28.403Z,17.85
2022-09-15T10:33:32.646Z,17.90
2022-09-15T10:38:42.433Z,18.06
2022-09-15T10:44:02.065Z,18.28
2022-09-15T10:49:15.796Z,18.36
2022-09-15T10:54:40.301Z,18.31
2022-09-15T11:00:05.323Z,18.40
2022-09-15T11:05:31.767Z,18.44
2022-09-15T11:10:52.015Z,18.57
2022-09-15T11:16:08.810Z,18.50
2022-09-15T11:21:16.054Z,18.42
2022-09-15T11:26:23.623Z,18.63
2022-09-15T11:31:28.326Z,18.57
2022-09-15T11:36:42.058Z,18.60
2022-09-15T11:41:49.673Z,18.78
2022-09-15T11:47:12.700Z,18.76
2022-09-15T11:52:26.812Z,18.79
2022-09-15T11:57:37.048Z,18.86
2022-09-15T12:02:46.949Z,18.85
2022-09-15T12:07:52.901Z,18.89
2022-09-15T12:12:55.629Z,18.85
2022-09-15T12:18:01.320Z,18.96
2022-09-15T12:23:16.452Z,18.94
2022-09-15T12:28:23.926Z,18.86
2022-09-15T12:33:54.577Z,19.00
2022-09-15T12:38:56.288Z,18.94
2022-09-15T12:44:16.360Z,18.83
2022-09-15T12:49:19.162Z,18.76
2022-09-15T12:54:28.141Z,18.71
2022-09-15T12:59:30.474Z,18.57
2022-09-15T13:04:40.895Z,18.46
2022-09-15T13:09:57.389Z,18.35
2022-09-15T13:15:02.334Z,18.39
2022-09-15T13:20:10.095Z,18.13
2022-09-15T13:25:13.725Z,18.15
2022-09-15T13:30:21.534Z,18.12
2022-09-15T13:35:49.662Z,18.07
2022-09-15T13:41:03.012Z,17.97
2022-09-15T13:46:07.560Z,17.90
2022-09-15T13:51:15.694Z,17.85
2022-09-15T13:56:28.132Z,17.49
2022-09-15T14:01:34.251Z,17.58
2022-09-15T14:06:41.807Z,17.51
2022-09-15T14:11:43.908Z,17.47
2022-09-15T14:16:49.842Z,17.29
2022-09-15T14:21:56.178Z,17.26
2022-09-15T14:27:03.356Z,17.29
2022-09-15T14:32:05.100Z,17.31
2022-09-15T14:37:12.679Z,17.25
2022-09-15T14:42:23.011Z,17.33
2022-09-15T14:47:28.355Z,17.29
2022-09-15T14:52:33.454Z,17.37
2022-09-15T14:57:37.510Z,17.49
2022-09-15T15:03:18.556Z,17.48
2022-09-15T15:08:32.860Z,17.50
2022-09-15T15:13:35.617Z,17.45
2022-09-15T15:18:39.902Z,17.47
2022-09-15T15:23:46.873Z,17.42
2022-09-15T15:28:48.621Z,17.39
2022-09-15T15:33:56.668Z,17.43
2022-09-15T15:39:04.123Z,17.36
2022-09-15T15:44:22.372Z,17.34
2022-09-15T15:49:29.311Z,17.37
2022-09-15T15:54:33.606Z,17.30
2022-09-15T15:59:35.142Z,17.26
2022-09-15T16:04:36.660Z,17.27
2022-09-15T16:09:38.208Z,17.23
2022-09-15T16:14:39.731Z,17.32
2022-09-15T16:19:41.322Z,17.27
2022-09-15T16:24:43.220Z,17.28
2022-09-15T16:29:45.168Z,17.30
2022-09-15T16:34:46.771Z,17.26
2022-09-15T16:39:49.383Z,17.19
2022-09-15T16:44:51.827Z,17.27
2022-09-15T16:49:53.532Z,17.21
2022-09-15T16:54:56.147Z,17.13
2022-09-15T16:59:57.761Z,17.10
2022-09-15T17:04:59.406Z,17.05
2022-09-15T17:10:01.508Z,17.08
2022-09-15T17:15:03.179Z,16.95
2022-09-15T17:20:05.410Z,17.01
2022-09-15T17:25:30.694Z,16.84
2022-09-15T17:30:32.643Z,16.90
2022-09-15T17:35:36.093Z,16.91
2022-09-15T17:40:37.942Z,16.83
2022-09-15T17:45:39.640Z,16.85
2022-09-15T17:50:41.897Z,16.82
2022-09-15T17:55:43.930Z,16.93
2022-09-15T18:00:46.503Z,16.90
2022-09-15T18:05:48.071Z,16.90
2022-09-15T18:10:49.618Z,16.87
2022-09-15T18:15:51.410Z,16.85
2022-09-15T18:20:54.826Z,16.80
2022-09-15T18:25:56.697Z,16.64
2022-09-15T18:30:58.754Z,16.56
2022-09-15T18:36:01.362Z,16.58
2022-09-15T18:41:04.507Z,16.46
2022-09-15T18:46:06.224Z,16.47
2022-09-15T18:51:08.789Z,16.47
2022-09-15T18:56:11.628Z,16.45
2022-09-15T19:01:13.295Z,16.40
2022-09-15T19:06:14.960Z,16.37
2022-09-15T19:11:17.276Z,16.28
2022-09-15T19:16:22.769Z,16.41
2022-09-15T19:21:27.339Z,16.38
2022-09-15T19:26:29.517Z,16.40
2022-09-15T19:31:31.443Z,16.41
2022-09-15T19:36:33.291Z,16.33
2022-09-15T19:41:34.823Z,16.21
2022-09-15T19:46:36.421Z,16.29
2022-09-15T19:51:38.244Z,16.27
2022-09-15T19:56:39.821Z,16.21
2022-09-15T20:01:41.436Z,16.20
2022-09-15T20:06:43.014Z,16.19
2022-09-15T20:11:44.951Z,16.19
2022-09-15T20:16:46.562Z,16.16
2022-09-15T20:21:51.120Z,16.19
2022-09-15T20:26:53.479Z,16.16
2022-09-15T20:31:55.034Z,16.21
2022-09-15T20:36:56.608Z,16.20
2022-09-15T20:41:58.167Z,16.16
2022-09-15T20:46:59.831Z,16.09
2022-09-15T20:52:01.428Z,16.06
2022-09-15T20:57:03.561Z,16.17
2022-09-15T21:02:06.096Z,16.10
2022-09-15T21:07:07.686Z,16.16
2022-09-15T21:12:09.729Z,16.16
2022-09-15T21:17:11.357Z,16.24
2022-09-15T21:22:12.989Z,16.30
2022-09-15T21:27:26.875Z,16.17
2022-09-15T21:32:30.117Z,16.16
2022-09-15T21:37:32.189Z,16.25
2022-09-15T21:42:34.811Z,16.29
2022-09-15T21:47:36.330Z,16.20
2022-09-15T21:52:38.166Z,16.12
2022-09-15T21:57:39.788Z,16.09
2022-09-15T22:02:41.463Z,15.89
2022-09-15T22:07:42.978Z,15.95
2022-09-15T22:12:44.570Z,16.10
2022-09-15T22:17:46.098Z,15.95
2022-09-15T22:22:47.658Z,16.20
2022-09-15T22:27:49.300Z,16.01
2022-09-15T22:32:50.864Z,15.85
2022-09-15T22:37:52.435Z,16.01
2022-09-15T22:42:53.962Z,15.86
2022-09-15T22:47:56.027Z,15.79
2022-09-15T22:52:57.546Z,15.77
2022-09-15T22:57:59.197Z,15.81
2022-09-15T23:03:00.828Z,15.87
2022-09-15T23:08:02.587Z,15.86
2022-09-15T23:13:04.188Z,15.87
2022-09-15T23:18:05.791Z,15.81
2022-09-15T23:23:07.370Z,15.96
2022-09-15T23:28:09.045Z,15.71
2022-09-15T23:33:10.711Z,15.78
2022-09-15T23:38:13.032Z,15.67
2022-09-15T23:43:15.507Z,15.83
2022-09-15T23:48:17.053Z,15.72
2022-09-15T23:53:18.803Z,15.61
2022-09-15T23:58:20.449Z,15.72
